Port Matilda, Pennsylvania
Current Conditions -  °F | °C
As of 3:55 AM on Saturday 29 Nov 2014 (Local Time) from KUNV Reporting Station
Light Snow Light Snow  
Wind Chill: 22°   Ceiling: 1200
Heat Index: 22°   Visibility: 2mi
Dew Point: 19°   Wind: 0mph
Humidity: 91%   Direction: NA
Pressure: 30.21"   Gusts: NA
Location:  40.8°N, 78.05°W
Report Text: KUNV 290855Z AUTO 00000KT 2SM -SN OVC012 M06/M07 A3021 RMK AO2 T10571070
Loading
Personal Weather Stations






























Interactive Weather Map New forecast layout! Learn more

10-Day Weather Forecast

Advertisements
Track Severe Weather on mobile